createdAt,value
2022-09-21T00:00:47.524Z,75.32
2022-09-21T00:03:15.549Z,75.28
2022-09-21T00:05:43.527Z,75.58
2022-09-21T00:08:13.845Z,75.82
2022-09-21T00:10:42.837Z,75.80
2022-09-21T00:13:13.392Z,75.88
2022-09-21T00:15:41.812Z,75.48
2022-09-21T00:18:11.320Z,75.40
2022-09-21T00:20:43.489Z,75.15
2022-09-21T00:23:11.653Z,75.30
2022-09-21T00:25:39.324Z,74.56
2022-09-21T00:28:08.297Z,74.11
2022-09-21T00:30:35.909Z,73.50
2022-09-21T00:33:03.496Z,73.55
2022-09-21T00:35:31.199Z,73.16
2022-09-21T00:38:01.969Z,73.17
2022-09-21T00:40:30.100Z,73.12
2022-09-21T00:43:15.561Z,73.28
2022-09-21T00:45:44.112Z,73.71
2022-09-21T00:48:11.937Z,74.29
2022-09-21T00:50:45.360Z,74.18
2022-09-21T00:53:13.044Z,74.57
2022-09-21T00:55:44.285Z,74.81
2022-09-21T00:58:18.046Z,74.46
2022-09-21T01:00:45.649Z,74.73
2022-09-21T01:03:14.371Z,75.12
2022-09-21T01:05:42.004Z,75.32
2022-09-21T01:08:13.000Z,74.97
2022-09-21T01:10:57.020Z,75.01
2022-09-21T01:13:35.130Z,74.89
2022-09-21T01:16:10.112Z,74.94
2022-09-21T01:18:44.883Z,74.81
2022-09-21T01:21:20.046Z,74.98
2022-09-21T01:24:09.858Z,75.17
2022-09-21T01:27:00.360Z,75.62
2022-09-21T01:29:34.059Z,76.06
2022-09-21T01:32:07.951Z,76.03
2022-09-21T01:34:40.400Z,75.58
2022-09-21T01:37:14.249Z,75.84
2022-09-21T01:39:45.883Z,75.70
2022-09-21T01:42:15.831Z,75.76
2022-09-21T01:44:47.145Z,75.90
2022-09-21T01:47:17.299Z,75.76
2022-09-21T01:49:49.797Z,75.15
2022-09-21T01:52:22.326Z,75.08
2022-09-21T01:54:54.606Z,74.84
2022-09-21T01:57:35.772Z,74.72
2022-09-21T02:00:06.760Z,74.86
2022-09-21T02:02:51.022Z,74.62
2022-09-21T02:05:21.054Z,74.97
2022-09-21T02:07:49.782Z,74.76
2022-09-21T02:10:21.786Z,74.40
2022-09-21T02:12:51.731Z,74.40
2022-09-21T02:15:25.818Z,74.63
2022-09-21T02:18:02.007Z,74.45
2022-09-21T02:20:33.429Z,74.07
2022-09-21T02:23:08.255Z,73.14
2022-09-21T02:25:47.361Z,72.99
2022-09-21T02:28:27.568Z,72.47
2022-09-21T02:31:02.354Z,72.94
2022-09-21T02:33:33.435Z,73.20
2022-09-21T02:36:08.619Z,72.56
2022-09-21T02:38:40.284Z,73.10
2022-09-21T02:41:16.897Z,74.15
2022-09-21T02:43:49.670Z,74.76
2022-09-21T02:46:25.280Z,74.95
2022-09-21T02:48:58.705Z,75.27
2022-09-21T02:51:32.209Z,75.05
2022-09-21T02:54:03.294Z,74.99
2022-09-21T02:56:32.863Z,74.87
2022-09-21T02:59:04.326Z,75.02
2022-09-21T03:01:34.947Z,75.21
2022-09-21T03:04:03.428Z,75.37
2022-09-21T03:06:31.370Z,75.62
2022-09-21T03:08:59.043Z,75.77
2022-09-21T03:11:27.072Z,75.55
2022-09-21T03:13:54.799Z,75.29
2022-09-21T03:16:22.806Z,74.75
2022-09-21T03:18:52.069Z,74.94
2022-09-21T03:21:19.658Z,75.11
2022-09-21T03:23:47.222Z,75.42
2022-09-21T03:26:14.844Z,75.18
2022-09-21T03:28:42.440Z,74.92
2022-09-21T03:31:10.107Z,74.80
2022-09-21T03:33:37.736Z,74.79
2022-09-21T03:36:07.042Z,75.05
2022-09-21T03:38:34.820Z,75.06
2022-09-21T03:41:02.452Z,75.07
2022-09-21T03:43:30.502Z,75.05
2022-09-21T03:45:58.263Z,75.17
2022-09-21T03:48:26.005Z,75.20
2022-09-21T03:50:53.912Z,74.96
2022-09-21T03:53:23.037Z,75.31
2022-09-21T03:55:50.903Z,75.92
2022-09-21T03:58:18.464Z,76.53
2022-09-21T04:00:46.281Z,76.38
2022-09-21T04:03:13.872Z,76.79
2022-09-21T04:05:41.508Z,77.24
2022-09-21T04:08:10.005Z,77.21
2022-09-21T04:10:42.136Z,76.18
2022-09-21T04:13:09.863Z,75.93
2022-09-21T04:15:37.501Z,76.04
2022-09-21T04:18:05.369Z,76.56
2022-09-21T04:20:33.175Z,75.68
2022-09-21T04:23:00.819Z,75.36
2022-09-21T04:25:30.859Z,74.92
2022-09-21T04:27:59.796Z,74.87
2022-09-21T04:30:27.424Z,75.61
2022-09-21T04:32:55.045Z,76.16
2022-09-21T04:35:22.649Z,76.70
2022-09-21T04:37:50.180Z,76.51
2022-09-21T04:40:17.947Z,76.62
2022-09-21T04:42:45.586Z,76.22
2022-09-21T04:45:14.499Z,76.49
2022-09-21T04:47:42.127Z,76.75
2022-09-21T04:50:10.626Z,77.02
2022-09-21T04:52:38.279Z,77.38
2022-09-21T04:55:06.827Z,77.31
2022-09-21T04:57:35.731Z,77.32
2022-09-21T05:00:04.154Z,77.37
2022-09-21T05:02:33.288Z,76.87
2022-09-21T05:05:00.959Z,76.75
2022-09-21T05:07:28.547Z,76.88
2022-09-21T05:10:04.222Z,77.11
2022-09-21T05:12:32.267Z,76.71
2022-09-21T05:14:59.914Z,77.49
2022-09-21T05:17:27.612Z,77.69
2022-09-21T05:19:56.583Z,77.13
2022-09-21T05:22:24.184Z,76.85
2022-09-21T05:24:51.780Z,76.53
2022-09-21T05:27:19.340Z,77.21
2022-09-21T05:29:47.520Z,77.46
2022-09-21T05:32:21.811Z,77.25
2022-09-21T05:35:01.626Z,77.42
2022-09-21T05:37:46.572Z,78.04
2022-09-21T05:40:15.426Z,78.34
2022-09-21T05:42:43.825Z,78.40
2022-09-21T05:45:15.519Z,79.07
2022-09-21T05:47:55.098Z,78.60
2022-09-21T05:50:49.844Z,78.50
2022-09-21T05:53:30.952Z,78.55
2022-09-21T05:56:00.755Z,78.50
2022-09-21T05:58:38.119Z,78.65
2022-09-21T06:01:21.806Z,79.19
2022-09-21T06:03:50.168Z,79.60
2022-09-21T06:06:19.975Z,79.25
2022-09-21T06:08:47.608Z,79.42
2022-09-21T06:11:15.733Z,78.99
2022-09-21T06:13:43.728Z,78.84
2022-09-21T06:16:11.750Z,78.15
2022-09-21T06:18:40.181Z,77.45
2022-09-21T06:21:09.094Z,77.68
2022-09-21T06:23:38.665Z,77.25
2022-09-21T06:26:06.563Z,77.20
2022-09-21T06:28:34.311Z,76.77
2022-09-21T06:31:01.995Z,76.45
2022-09-21T06:33:29.697Z,76.26
2022-09-21T06:35:58.836Z,76.36
2022-09-21T06:38:27.984Z,75.61
2022-09-21T06:40:56.986Z,75.64
2022-09-21T06:43:24.588Z,75.35
2022-09-21T06:45:56.121Z,74.73
2022-09-21T06:48:24.196Z,75.00
2022-09-21T06:50:51.920Z,75.26
2022-09-21T06:53:19.926Z,75.29
2022-09-21T06:55:47.526Z,74.80
2022-09-21T06:58:16.498Z,74.53
2022-09-21T07:00:44.154Z,74.05
2022-09-21T07:03:12.995Z,74.33
2022-09-21T07:05:40.878Z,74.18
2022-09-21T07:10:04.887Z,74.13
2022-09-21T07:10:59.278Z,74.51
2022-09-21T07:13:28.645Z,75.00
2022-09-21T07:15:56.673Z,74.85
2022-09-21T07:18:24.558Z,75.65
2022-09-21T07:20:52.341Z,75.39
2022-09-21T07:23:22.235Z,74.41
2022-09-21T07:25:52.319Z,73.77
2022-09-21T07:28:20.618Z,73.53
2022-09-21T07:30:49.800Z,73.40
2022-09-21T07:33:17.583Z,73.51
2022-09-21T07:35:52.194Z,73.85
2022-09-21T07:38:20.630Z,73.66
2022-09-21T07:40:48.743Z,73.19
2022-09-21T07:43:17.911Z,72.78
2022-09-21T07:45:55.765Z,72.81
2022-09-21T07:48:23.642Z,73.35
2022-09-21T07:50:51.230Z,72.52
2022-09-21T07:53:18.840Z,72.68
2022-09-21T07:55:46.392Z,72.03
2022-09-21T07:58:31.764Z,72.30
2022-09-21T08:01:01.186Z,72.28
2022-09-21T08:03:28.764Z,72.28
2022-09-21T08:05:56.453Z,71.70
2022-09-21T08:08:24.038Z,71.84
2022-09-21T08:10:52.962Z,71.42
2022-09-21T08:13:20.575Z,71.64
2022-09-21T08:15:50.218Z,71.42
2022-09-21T08:18:19.528Z,66.84
2022-09-21T08:20:55.292Z,55.78
2022-09-21T08:23:22.896Z,51.45
2022-09-21T08:25:51.263Z,47.41
2022-09-21T08:28:19.479Z,41.63
2022-09-21T08:30:47.135Z,38.52
2022-09-21T08:33:14.775Z,36.65
2022-09-21T08:35:43.801Z,36.09
2022-09-21T08:38:11.383Z,33.60
2022-09-21T08:40:41.810Z,31.14
2022-09-21T08:43:13.563Z,28.81
2022-09-21T08:45:44.600Z,27.26
2022-09-21T08:48:22.895Z,25.14
2022-09-21T08:50:58.594Z,22.95
2022-09-21T08:53:29.296Z,21.30
2022-09-21T08:55:57.486Z,20.40
2022-09-21T08:58:26.595Z,19.21
2022-09-21T09:01:08.995Z,18.09
2022-09-21T09:03:54.640Z,17.82
2022-09-21T09:06:33.259Z,18.56
2022-09-21T09:09:15.602Z,19.52
2022-09-21T09:11:56.293Z,20.18
2022-09-21T09:14:47.834Z,23.35
2022-09-21T09:17:32.623Z,27.72
2022-09-21T09:20:04.396Z,31.60
2022-09-21T09:22:37.881Z,35.20
2022-09-21T09:25:13.463Z,38.65
2022-09-21T09:27:45.492Z,41.85
2022-09-21T09:30:18.446Z,43.67
2022-09-21T09:32:53.443Z,44.67
2022-09-21T09:35:27.805Z,46.23
2022-09-21T09:38:00.924Z,47.56
2022-09-21T09:40:45.501Z,48.12
2022-09-21T09:43:23.806Z,49.03
2022-09-21T09:46:02.798Z,48.73
2022-09-21T09:48:43.012Z,48.69
2022-09-21T09:51:13.263Z,49.61
2022-09-21T09:53:42.247Z,51.07
2022-09-21T09:56:11.556Z,52.17
2022-09-21T09:58:46.332Z,51.68
2022-09-21T10:01:39.394Z,52.02
2022-09-21T10:04:09.072Z,52.41
2022-09-21T10:06:39.342Z,52.97
2022-09-21T10:09:24.953Z,53.13
2022-09-21T10:11:54.069Z,53.73
2022-09-21T10:14:24.826Z,52.97
2022-09-21T10:16:54.434Z,52.98
2022-09-21T10:19:24.410Z,52.79
2022-09-21T10:21:58.170Z,53.01
2022-09-21T10:24:30.473Z,51.26
2022-09-21T10:27:05.541Z,50.54
2022-09-21T10:29:41.016Z,51.48
2022-09-21T10:32:21.722Z,51.67
2022-09-21T10:35:15.467Z,51.70
2022-09-21T10:37:46.325Z,52.38
2022-09-21T10:40:30.563Z,51.38
2022-09-21T10:43:00.470Z,51.59
2022-09-21T10:45:30.148Z,48.66
2022-09-21T10:47:59.815Z,48.84
2022-09-21T10:50:30.384Z,48.80
2022-09-21T10:53:01.966Z,49.43
2022-09-21T10:55:33.021Z,49.73
2022-09-21T10:58:01.491Z,45.08
2022-09-21T11:00:35.504Z,44.56
2022-09-21T11:03:28.567Z,45.05
2022-09-21T11:05:58.754Z,46.63
2022-09-21T11:08:33.175Z,46.10
2022-09-21T11:11:18.986Z,45.16
2022-09-21T11:13:54.298Z,45.01
2022-09-21T11:16:30.363Z,46.01
2022-09-21T11:19:04.729Z,45.70
2022-09-21T11:21:41.691Z,42.84
2022-09-21T11:24:21.563Z,39.11
2022-09-21T11:26:55.552Z,36.34
2022-09-21T11:29:28.764Z,36.50
2022-09-21T11:32:07.041Z,37.36
2022-09-21T11:35:09.319Z,37.48
2022-09-21T11:37:52.382Z,38.78
2022-09-21T11:40:33.047Z,38.93
2022-09-21T11:43:15.923Z,39.65
2022-09-21T11:46:06.798Z,40.64
2022-09-21T11:48:53.348Z,41.31
2022-09-21T11:51:40.979Z,40.91
2022-09-21T11:54:32.147Z,41.42
2022-09-21T11:57:08.212Z,41.79
2022-09-21T11:59:49.376Z,42.93
2022-09-21T12:02:37.127Z,43.36
2022-09-21T12:05:12.908Z,44.48
2022-09-21T12:07:58.217Z,43.69
2022-09-21T12:10:39.472Z,42.66
2022-09-21T12:13:15.992Z,42.22
2022-09-21T12:15:50.905Z,42.56
2022-09-21T12:18:27.369Z,42.76
2022-09-21T12:21:02.957Z,43.70
2022-09-21T12:23:39.452Z,44.49
2022-09-21T12:26:08.598Z,45.27
2022-09-21T12:28:40.595Z,45.37
2022-09-21T12:31:15.543Z,45.73
2022-09-21T12:33:50.087Z,44.31
2022-09-21T12:36:21.936Z,43.44
2022-09-21T12:38:54.525Z,44.80
2022-09-21T12:41:34.324Z,44.81
2022-09-21T12:44:13.397Z,45.17
2022-09-21T12:46:51.149Z,45.48
2022-09-21T12:49:24.721Z,43.89
2022-09-21T12:51:57.075Z,43.91
2022-09-21T12:54:38.009Z,44.25
2022-09-21T12:57:29.810Z,44.83
2022-09-21T13:00:06.149Z,45.71
2022-09-21T13:05:16.840Z,45.33
2022-09-21T13:08:09.353Z,45.88
2022-09-21T13:10:44.518Z,45.76
2022-09-21T13:13:28.285Z,45.40
2022-09-21T13:15:59.064Z,45.59
2022-09-21T13:18:35.797Z,45.70
2022-09-21T13:21:17.467Z,45.74
2022-09-21T13:23:52.195Z,45.03
2022-09-21T13:26:32.599Z,45.59
2022-09-21T13:29:07.688Z,45.23
2022-09-21T13:31:57.384Z,45.88
2022-09-21T13:34:35.089Z,46.42
2022-09-21T13:37:27.395Z,45.47
2022-09-21T13:40:40.131Z,45.02
2022-09-21T13:43:31.792Z,44.85
2022-09-21T13:45:59.573Z,43.85
2022-09-21T13:48:30.308Z,42.90
2022-09-21T13:51:01.718Z,42.33
2022-09-21T13:53:35.762Z,41.52
2022-09-21T13:56:09.770Z,42.43
2022-09-21T13:58:43.992Z,41.66
2022-09-21T14:01:42.365Z,41.86
2022-09-21T14:04:19.318Z,40.66
2022-09-21T14:06:54.158Z,41.67
2022-09-21T14:09:25.870Z,40.67
2022-09-21T14:12:00.256Z,40.89
2022-09-21T14:14:31.082Z,40.95
2022-09-21T14:17:00.217Z,41.23
2022-09-21T14:20:05.177Z,41.73
2022-09-21T14:22:42.063Z,41.47
2022-09-21T14:25:48.807Z,41.75
2022-09-21T14:28:18.389Z,41.92
2022-09-21T14:30:55.329Z,41.74
2022-09-21T14:33:30.043Z,42.01
2022-09-21T14:35:58.985Z,41.47
2022-09-21T14:38:30.623Z,41.73
2022-09-21T14:41:02.241Z,40.23
2022-09-21T14:43:35.125Z,40.13
2022-09-21T14:46:16.681Z,39.82
2022-09-21T14:48:56.571Z,40.10
2022-09-21T14:51:36.439Z,39.79
2022-09-21T14:54:34.475Z,39.00
2022-09-21T14:57:34.850Z,39.62
2022-09-21T15:00:20.946Z,40.19
2022-09-21T15:02:51.972Z,40.35
2022-09-21T15:05:31.072Z,39.60
2022-09-21T15:08:38.360Z,40.05
2022-09-21T15:11:15.953Z,39.59
2022-09-21T15:13:53.478Z,39.38
2022-09-21T15:16:37.903Z,39.66
2022-09-21T15:19:22.881Z,39.86
2022-09-21T15:21:52.475Z,39.85
2022-09-21T15:24:29.517Z,39.93
2022-09-21T15:27:08.210Z,39.66
2022-09-21T15:29:36.963Z,39.36
2022-09-21T15:32:06.314Z,40.00
2022-09-21T15:34:34.031Z,39.94
2022-09-21T15:37:13.257Z,39.48
2022-09-21T15:39:41.341Z,39.60
2022-09-21T15:42:22.702Z,38.86
2022-09-21T15:44:55.218Z,38.21
2022-09-21T15:47:25.941Z,37.89
2022-09-21T15:49:56.144Z,38.08
2022-09-21T15:52:33.842Z,37.80
2022-09-21T15:55:09.189Z,37.65
2022-09-21T15:57:41.282Z,38.09
2022-09-21T16:00:21.398Z,39.24
2022-09-21T16:03:07.465Z,39.26
2022-09-21T16:05:46.965Z,38.64
2022-09-21T16:08:31.222Z,39.71
2022-09-21T16:11:23.152Z,39.13
2022-09-21T16:14:17.311Z,38.73
2022-09-21T16:17:08.072Z,38.74
2022-09-21T16:19:41.968Z,39.90
2022-09-21T16:22:12.472Z,40.13
2022-09-21T16:24:46.077Z,39.70
2022-09-21T16:27:18.262Z,39.21
2022-09-21T16:29:49.772Z,39.71
2022-09-21T16:32:27.368Z,39.53
2022-09-21T16:35:19.607Z,39.93
2022-09-21T16:37:47.231Z,39.42
2022-09-21T16:40:15.123Z,39.12
2022-09-21T16:42:43.130Z,38.83
2022-09-21T16:45:23.594Z,39.23
2022-09-21T16:47:54.084Z,39.32
2022-09-21T16:50:21.695Z,39.48
2022-09-21T16:52:52.473Z,40.68
2022-09-21T16:55:20.095Z,40.18
2022-09-21T16:57:49.911Z,40.04
2022-09-21T17:00:22.057Z,40.17
2022-09-21T17:02:50.278Z,41.99
2022-09-21T17:05:19.264Z,42.20
2022-09-21T17:07:53.015Z,42.66
2022-09-21T17:10:24.164Z,43.26
2022-09-21T17:12:53.944Z,45.26
2022-09-21T17:15:23.800Z,44.87
2022-09-21T17:17:51.422Z,44.93
2022-09-21T17:20:30.907Z,45.22
2022-09-21T17:22:58.666Z,45.85
2022-09-21T17:25:27.648Z,46.24
2022-09-21T17:27:57.964Z,46.08
2022-09-21T17:30:28.192Z,44.88
2022-09-21T17:32:58.277Z,46.39
2022-09-21T17:35:31.877Z,46.94
2022-09-21T17:38:00.298Z,46.59
2022-09-21T17:40:29.781Z,46.43
2022-09-21T17:43:11.919Z,47.15
2022-09-21T17:45:46.840Z,46.82
2022-09-21T17:48:19.994Z,48.64
2022-09-21T17:50:48.457Z,48.49
2022-09-21T17:53:33.878Z,47.96
2022-09-21T17:56:25.661Z,48.64
2022-09-21T17:58:59.134Z,48.89
2022-09-21T18:01:33.709Z,49.31
2022-09-21T18:04:02.019Z,49.20
2022-09-21T18:06:31.420Z,50.15
2022-09-21T18:08:59.643Z,50.18
2022-09-21T18:11:56.506Z,50.64
2022-09-21T18:14:35.498Z,50.21
2022-09-21T18:17:20.735Z,49.64
2022-09-21T18:20:03.636Z,50.24
2022-09-21T18:22:40.490Z,49.15
2022-09-21T18:25:16.350Z,49.02
2022-09-21T18:27:47.999Z,49.82
2022-09-21T18:30:17.659Z,50.17
2022-09-21T18:32:56.975Z,49.81
2022-09-21T18:35:38.633Z,50.80
2022-09-21T18:38:18.503Z,49.99
2022-09-21T18:41:08.660Z,49.11
2022-09-21T18:43:46.245Z,49.50
2022-09-21T18:46:17.914Z,48.93
2022-09-21T18:48:59.987Z,48.56
2022-09-21T18:51:35.225Z,48.62
2022-09-21T18:54:03.475Z,49.46
2022-09-21T18:56:35.263Z,49.72
2022-09-21T18:59:03.757Z,50.06
2022-09-21T19:01:33.894Z,50.18
2022-09-21T19:04:04.148Z,49.67
2022-09-21T19:06:44.554Z,49.92
2022-09-21T19:09:35.455Z,49.41
2022-09-21T19:12:14.002Z,49.21
2022-09-21T19:14:51.039Z,49.42
2022-09-21T19:17:32.160Z,49.33
2022-09-21T19:20:13.210Z,49.36
2022-09-21T19:22:48.222Z,49.68
2022-09-21T19:25:24.758Z,50.14
2022-09-21T19:27:58.267Z,49.96
2022-09-21T19:30:26.752Z,49.88
2022-09-21T19:32:57.986Z,50.19
2022-09-21T19:35:28.928Z,51.04
2022-09-21T19:37:58.388Z,51.27
2022-09-21T19:40:28.195Z,51.45
2022-09-21T19:43:14.192Z,51.60
2022-09-21T19:45:56.157Z,51.69
2022-09-21T19:48:28.481Z,51.40
2022-09-21T19:50:58.839Z,51.63
2022-09-21T19:53:45.100Z,51.78
2022-09-21T19:56:35.125Z,52.00
2022-09-21T19:59:20.940Z,52.05
2022-09-21T20:01:54.678Z,52.42
2022-09-21T20:04:28.247Z,52.80
2022-09-21T20:07:03.111Z,53.09
2022-09-21T20:09:36.901Z,53.25
2022-09-21T20:12:15.105Z,53.43
2022-09-21T20:14:50.353Z,53.21
2022-09-21T20:17:22.730Z,53.29
2022-09-21T20:19:56.955Z,53.69
2022-09-21T20:22:34.644Z,53.59
2022-09-21T20:25:07.974Z,53.75
2022-09-21T20:27:39.851Z,54.10
2022-09-21T20:30:10.017Z,54.06
2022-09-21T20:32:40.289Z,54.51
2022-09-21T20:35:15.941Z,54.61
2022-09-21T20:37:45.293Z,54.81
2022-09-21T20:40:13.868Z,54.68
2022-09-21T20:42:42.330Z,55.01
2022-09-21T20:45:11.731Z,55.42
2022-09-21T20:47:39.750Z,55.41
2022-09-21T20:50:12.109Z,55.38
2022-09-21T20:52:42.104Z,55.28
2022-09-21T20:55:13.484Z,55.62
2022-09-21T20:57:41.304Z,55.70
2022-09-21T21:00:11.271Z,55.62
2022-09-21T21:02:38.966Z,55.96
2022-09-21T21:05:08.238Z,56.28
2022-09-21T21:07:36.377Z,56.33
2022-09-21T21:10:04.951Z,56.48
2022-09-21T21:12:33.969Z,56.62
2022-09-21T21:15:01.581Z,56.71
2022-09-21T21:17:29.204Z,57.34
2022-09-21T21:19:56.998Z,57.25
2022-09-21T21:22:24.594Z,57.02
2022-09-21T21:24:52.586Z,56.93
2022-09-21T21:27:22.206Z,57.55
2022-09-21T21:29:52.908Z,57.91
2022-09-21T21:32:23.685Z,57.84
2022-09-21T21:34:51.987Z,58.06
2022-09-21T21:37:20.967Z,58.03
2022-09-21T21:39:48.793Z,58.05
2022-09-21T21:42:16.386Z,57.86
2022-09-21T21:44:44.031Z,58.04
2022-09-21T21:47:38.156Z,58.03
2022-09-21T21:50:00.745Z,58.33
2022-09-21T21:52:28.310Z,58.67
2022-09-21T21:54:55.954Z,59.22
2022-09-21T21:57:23.608Z,59.26
2022-09-21T21:59:51.203Z,58.88
2022-09-21T22:02:20.293Z,58.75
2022-09-21T22:04:47.924Z,59.01
2022-09-21T22:07:15.510Z,58.83
2022-09-21T22:09:43.114Z,58.92
2022-09-21T22:12:11.144Z,58.83
2022-09-21T22:14:38.747Z,59.08
2022-09-21T22:17:06.306Z,58.98
2022-09-21T22:19:35.347Z,58.89
2022-09-21T22:22:02.962Z,58.98
2022-09-21T22:24:30.656Z,59.08
2022-09-21T22:26:58.310Z,59.06
2022-09-21T22:29:25.889Z,59.29
2022-09-21T22:31:55.109Z,59.50
2022-09-21T22:34:22.940Z,59.68
2022-09-21T22:36:51.879Z,59.81
2022-09-21T22:39:19.487Z,60.12
2022-09-21T22:41:47.161Z,60.28
2022-09-21T22:44:14.750Z,60.59
2022-09-21T22:46:42.550Z,60.84
2022-09-21T22:49:10.150Z,60.88
2022-09-21T22:51:38.119Z,60.90
2022-09-21T22:54:07.374Z,61.30
2022-09-21T22:56:35.805Z,61.23
2022-09-21T22:59:05.031Z,60.96
2022-09-21T23:01:35.121Z,60.84
2022-09-21T23:04:04.693Z,60.83
2022-09-21T23:06:35.454Z,60.69
2022-09-21T23:09:06.646Z,60.86
2022-09-21T23:11:37.320Z,60.80
2022-09-21T23:14:05.306Z,60.78
2022-09-21T23:16:33.029Z,60.87
2022-09-21T23:19:00.953Z,60.76
2022-09-21T23:21:30.412Z,60.57
2022-09-21T23:24:00.501Z,60.59
2022-09-21T23:26:30.310Z,60.62
2022-09-21T23:29:01.507Z,60.67
2022-09-21T23:31:29.958Z,60.61
2022-09-21T23:34:00.013Z,60.38
2022-09-21T23:36:31.487Z,60.62
2022-09-21T23:38:59.571Z,60.65
2022-09-21T23:41:29.218Z,60.31
2022-09-21T23:43:57.984Z,60.06
2022-09-21T23:46:29.624Z,60.11
2022-09-21T23:48:58.171Z,60.27
2022-09-21T23:51:26.586Z,60.13
2022-09-21T23:53:54.677Z,60.58
2022-09-21T23:56:23.962Z,60.73
2022-09-21T23:58:52.270Z,60.92
